createdAt,value
2017-06-02T00:02:03.099Z,5.90
2017-06-02T00:04:31.887Z,6.18
2017-06-02T00:07:01.599Z,6.46
2017-06-02T00:09:32.315Z,6.88
2017-06-02T00:12:02.037Z,5.30
2017-06-02T00:14:30.825Z,4.75
2017-06-02T00:16:59.658Z,5.70
2017-06-02T00:19:34.127Z,4.86
2017-06-02T00:22:04.883Z,5.26
2017-06-02T00:24:33.675Z,5.10
2017-06-02T00:27:02.507Z,4.58
2017-06-02T00:29:36.079Z,4.80
2017-06-02T00:32:04.850Z,5.10
2017-06-02T00:34:34.527Z,4.64
2017-06-02T00:37:05.327Z,5.56
2017-06-02T00:39:33.335Z,5.20
2017-06-02T00:42:04.070Z,5.48
2017-06-02T00:44:36.251Z,6.00
2017-06-02T00:47:09.127Z,5.98
2017-06-02T00:49:41.818Z,5.92
2017-06-02T00:52:11.502Z,6.33
2017-06-02T00:54:40.302Z,5.95
2017-06-02T00:57:09.119Z,5.84
2017-06-02T00:59:37.126Z,4.74
2017-06-02T01:02:11.478Z,5.12
2017-06-02T01:04:42.214Z,5.18
2017-06-02T01:07:22.666Z,4.70
2017-06-02T01:09:51.455Z,5.34
2017-06-02T01:12:20.241Z,5.04
2017-06-02T01:14:52.926Z,6.27
2017-06-02T01:17:21.718Z,5.47
2017-06-02T01:19:54.418Z,6.60
2017-06-02T01:22:25.130Z,5.78
2017-06-02T01:24:54.846Z,6.32
2017-06-02T01:27:24.641Z,6.22
2017-06-02T01:29:54.354Z,5.57
2017-06-02T01:32:23.182Z,6.37
2017-06-02T01:34:51.945Z,5.78
2017-06-02T01:37:20.733Z,5.83
2017-06-02T01:39:49.545Z,5.97
2017-06-02T01:42:18.330Z,6.07
2017-06-02T01:44:47.105Z,5.55
2017-06-02T01:47:15.901Z,4.82
2017-06-02T01:49:52.514Z,5.30
2017-06-02T01:52:26.585Z,5.86
2017-06-02T01:54:55.368Z,5.00
2017-06-02T01:57:24.149Z,5.07
2017-06-02T01:59:52.929Z,4.62
2017-06-02T02:02:21.909Z,4.90
2017-06-02T02:04:52.697Z,5.45
2017-06-02T02:07:21.477Z,5.93
2017-06-02T02:09:55.741Z,5.77
2017-06-02T02:12:30.471Z,5.85
2017-06-02T02:14:59.289Z,5.32
2017-06-02T02:17:28.053Z,5.05
2017-06-02T02:20:04.526Z,5.55
2017-06-02T02:22:35.249Z,5.25
2017-06-02T02:25:04.998Z,5.13
2017-06-02T02:27:33.025Z,5.15
2017-06-02T02:30:05.662Z,4.48
2017-06-02T02:32:36.489Z,4.90
2017-06-02T02:35:11.921Z,5.35
2017-06-02T02:37:42.617Z,5.62
2017-06-02T02:40:11.396Z,5.73
2017-06-02T02:42:43.377Z,5.78
2017-06-02T02:45:17.989Z,5.70
2017-06-02T02:47:46.789Z,5.75
2017-06-02T02:50:15.569Z,5.70
2017-06-02T02:52:46.340Z,4.87
2017-06-02T02:55:17.133Z,5.53
2017-06-02T02:57:45.924Z,5.33
2017-06-02T03:00:14.705Z,5.10
2017-06-02T03:02:43.656Z,4.78
2017-06-02T03:05:12.464Z,5.63
2017-06-02T03:07:41.240Z,6.40
2017-06-02T03:10:10.016Z,5.10
2017-06-02T03:12:38.844Z,7.68
2017-06-02T03:15:07.637Z,5.50
2017-06-02T03:17:36.416Z,5.12
2017-06-02T03:20:05.221Z,5.95
2017-06-02T03:22:34.048Z,6.25
2017-06-02T03:25:02.825Z,5.38
2017-06-02T03:27:31.622Z,5.28
2017-06-02T03:30:00.429Z,4.97
2017-06-02T03:32:29.200Z,6.30
2017-06-02T03:34:58.020Z,5.95
2017-06-02T03:37:26.792Z,5.28
2017-06-02T03:39:55.580Z,5.50
2017-06-02T03:42:24.376Z,5.12
2017-06-02T03:44:53.160Z,6.18
2017-06-02T03:47:21.932Z,5.83
2017-06-02T03:49:50.822Z,5.80
2017-06-02T03:52:20.220Z,5.47
2017-06-02T03:54:48.991Z,5.45
2017-06-02T03:57:17.904Z,5.42
2017-06-02T03:59:46.684Z,5.40
2017-06-02T04:02:15.471Z,6.36
2017-06-02T04:04:44.263Z,6.35
2017-06-02T04:07:13.043Z,5.12
2017-06-02T04:09:41.852Z,6.00
2017-06-02T04:12:10.611Z,5.47
2017-06-02T04:14:39.395Z,6.04
2017-06-02T04:17:08.179Z,6.00
2017-06-02T04:19:36.959Z,5.94
2017-06-02T04:22:06.655Z,6.50
2017-06-02T04:24:35.432Z,5.57
2017-06-02T04:27:05.148Z,5.30
2017-06-02T04:29:33.919Z,5.42
2017-06-02T04:32:02.707Z,5.90
2017-06-02T04:34:31.495Z,5.55
2017-06-02T04:37:00.272Z,6.15
2017-06-02T04:39:29.051Z,6.45
2017-06-02T04:41:57.851Z,5.56
2017-06-02T04:44:26.627Z,6.23
2017-06-02T04:46:56.359Z,5.80
2017-06-02T04:49:25.156Z,7.22
2017-06-02T04:51:54.447Z,7.73
2017-06-02T04:54:23.299Z,7.30
2017-06-02T04:56:52.088Z,6.80
2017-06-02T04:59:20.851Z,6.16
2017-06-02T05:01:49.632Z,7.02
2017-06-02T05:04:18.755Z,6.36
2017-06-02T05:06:47.639Z,6.46
2017-06-02T05:09:16.415Z,6.02
2017-06-02T05:11:45.315Z,6.00
2017-06-02T05:14:14.095Z,7.04
2017-06-02T05:16:42.887Z,5.80
2017-06-02T05:19:11.675Z,5.62
2017-06-02T05:21:40.447Z,5.02
2017-06-02T05:24:09.219Z,5.00
2017-06-02T05:26:38.043Z,5.42
2017-06-02T05:29:06.855Z,5.00
2017-06-02T05:31:35.627Z,5.02
2017-06-02T05:36:43.431Z,5.36
2017-06-02T05:39:12.315Z,4.16
2017-06-02T05:41:41.083Z,4.54
2017-06-02T05:44:09.847Z,4.82
2017-06-02T05:46:38.672Z,5.38
2017-06-02T05:49:07.439Z,4.60
2017-06-02T05:51:36.235Z,4.68
2017-06-02T05:54:05.039Z,4.78
2017-06-02T05:56:33.887Z,5.20
2017-06-02T05:59:02.663Z,3.90
2017-06-02T06:01:31.439Z,3.88
2017-06-02T06:04:00.296Z,4.02
2017-06-02T06:06:29.095Z,4.14
2017-06-02T06:09:01.204Z,4.02
2017-06-02T06:11:29.984Z,4.16
2017-06-02T06:13:58.743Z,3.78
2017-06-02T06:16:27.519Z,3.24
2017-06-02T06:18:56.286Z,3.26
2017-06-02T06:21:25.048Z,3.52
2017-06-02T06:23:53.846Z,3.76
2017-06-02T06:26:22.615Z,3.88
2017-06-02T06:28:51.382Z,3.88
2017-06-02T06:31:20.154Z,3.58
2017-06-02T06:33:48.918Z,3.90
2017-06-02T06:36:17.687Z,3.12
2017-06-02T06:38:46.471Z,3.28
2017-06-02T06:41:15.246Z,3.12
2017-06-02T06:43:44.011Z,2.66
2017-06-02T06:46:12.794Z,3.94
2017-06-02T06:48:41.550Z,3.06
2017-06-02T06:51:10.316Z,3.14
2017-06-02T06:53:39.090Z,3.30
2017-06-02T06:56:07.854Z,2.70
2017-06-02T06:58:36.614Z,2.56
2017-06-02T07:01:05.420Z,2.18
2017-06-02T07:03:34.174Z,2.34
2017-06-02T07:06:02.942Z,1.86
2017-06-02T07:08:31.718Z,1.90
2017-06-02T07:11:00.479Z,2.00
2017-06-02T07:13:29.242Z,2.14
2017-06-02T07:15:58.014Z,1.78
2017-06-02T07:18:26.786Z,2.08
2017-06-02T07:20:55.550Z,4.18
2017-06-02T07:23:24.354Z,1.96
2017-06-02T07:25:53.122Z,2.12
2017-06-02T07:28:21.890Z,2.12
2017-06-02T07:30:50.681Z,2.50
2017-06-02T07:33:19.441Z,2.28
2017-06-02T07:35:48.210Z,1.88
2017-06-02T07:38:17.005Z,2.20
2017-06-02T07:40:45.777Z,2.02
2017-06-02T07:43:14.529Z,1.76
2017-06-02T07:45:43.329Z,2.16
2017-06-02T07:48:12.093Z,2.08
2017-06-02T07:50:40.879Z,1.90
2017-06-02T07:53:09.666Z,1.80
2017-06-02T07:55:38.477Z,1.96
2017-06-02T07:58:07.285Z,2.78
2017-06-02T08:00:36.073Z,1.80
2017-06-02T08:03:04.837Z,1.76
2017-06-02T08:05:33.653Z,1.92
2017-06-02T08:08:02.433Z,1.56
2017-06-02T08:10:31.197Z,1.86
2017-06-02T08:13:00.005Z,1.86
2017-06-02T08:15:28.833Z,1.72
2017-06-02T08:17:57.600Z,1.80
2017-06-02T08:20:26.365Z,1.68
2017-06-02T08:22:55.153Z,1.76
2017-06-02T08:25:23.940Z,1.76
2017-06-02T08:27:52.697Z,2.34
2017-06-02T08:30:21.485Z,1.66
2017-06-02T08:32:50.253Z,1.96
2017-06-02T08:35:19.093Z,1.98
2017-06-02T08:37:47.896Z,1.58
2017-06-02T08:40:16.744Z,1.60
2017-06-02T08:42:45.541Z,1.54
2017-06-02T08:45:14.313Z,2.18
2017-06-02T08:47:43.072Z,1.44
2017-06-02T08:50:11.841Z,2.22
2017-06-02T08:52:40.644Z,1.76
2017-06-02T08:55:09.412Z,1.96
2017-06-02T08:57:38.181Z,1.46
2017-06-02T09:00:06.957Z,1.90
2017-06-02T09:02:35.725Z,1.72
2017-06-02T09:05:04.488Z,1.74
2017-06-02T09:07:33.356Z,1.48
2017-06-02T09:10:02.129Z,1.76
2017-06-02T09:12:30.920Z,2.04
2017-06-02T09:14:59.712Z,1.50
2017-06-02T09:17:28.496Z,1.80
2017-06-02T09:19:57.264Z,1.60
2017-06-02T09:22:26.284Z,1.90
2017-06-02T09:24:55.152Z,1.48
2017-06-02T09:27:23.888Z,1.74
2017-06-02T09:29:52.732Z,1.68
2017-06-02T09:32:21.496Z,1.92
2017-06-02T09:34:50.276Z,1.52
2017-06-02T09:37:19.160Z,1.58
2017-06-02T09:39:47.924Z,1.72
2017-06-02T09:42:16.700Z,1.76
2017-06-02T09:44:45.491Z,1.80
2017-06-02T09:47:14.288Z,1.48
2017-06-02T09:49:43.052Z,1.50
2017-06-02T09:52:11.828Z,1.92
2017-06-02T09:54:40.712Z,1.34
2017-06-02T09:57:09.456Z,1.84
2017-06-02T09:59:38.251Z,1.82
2017-06-02T10:02:07.024Z,1.38
2017-06-02T10:04:35.791Z,1.44
2017-06-02T10:07:04.592Z,1.40
2017-06-02T10:09:33.359Z,1.52
2017-06-02T10:12:02.140Z,1.50
2017-06-02T10:14:30.908Z,1.64
2017-06-02T10:16:59.679Z,1.64
2017-06-02T10:19:28.448Z,1.86
2017-06-02T10:21:57.252Z,1.50
2017-06-02T10:24:26.011Z,1.30
2017-06-02T10:26:54.783Z,1.30
2017-06-02T10:29:23.695Z,1.24
2017-06-02T10:31:52.467Z,1.54
2017-06-02T10:34:21.231Z,1.64
2017-06-02T10:36:50.031Z,2.92
2017-06-02T10:39:18.803Z,1.34
2017-06-02T10:41:47.571Z,1.28
2017-06-02T10:44:16.359Z,1.46
2017-06-02T10:49:23.147Z,1.48
2017-06-02T10:51:51.907Z,1.22
2017-06-02T10:54:20.669Z,1.40
2017-06-02T10:56:49.463Z,1.50
2017-06-02T10:59:18.223Z,2.06
2017-06-02T11:01:46.994Z,1.50
2017-06-02T11:04:15.791Z,1.40
2017-06-02T11:06:44.560Z,1.84
2017-06-02T11:09:15.435Z,1.62
2017-06-02T11:11:48.703Z,1.28
2017-06-02T11:14:19.063Z,1.24
2017-06-02T11:16:49.751Z,1.22
2017-06-02T11:19:20.870Z,1.44
2017-06-02T11:21:50.003Z,1.70
2017-06-02T11:24:18.783Z,1.34
2017-06-02T11:26:47.659Z,1.90
2017-06-02T11:29:16.426Z,1.60
2017-06-02T11:31:45.202Z,1.40
2017-06-02T11:34:13.983Z,1.22
2017-06-02T11:36:42.798Z,1.34
2017-06-02T11:39:11.559Z,1.60
2017-06-02T11:41:40.331Z,1.38
2017-06-02T11:44:09.174Z,1.82
2017-06-02T11:46:40.299Z,1.60
2017-06-02T11:49:09.354Z,1.70
2017-06-02T11:51:38.127Z,1.50
2017-06-02T11:54:06.902Z,1.72
2017-06-02T11:56:35.707Z,2.00
2017-06-02T11:59:04.470Z,1.64
2017-06-02T12:01:33.251Z,1.44
2017-06-02T12:04:02.062Z,1.68
2017-06-02T12:06:30.810Z,1.52
2017-06-02T12:08:59.586Z,1.54
2017-06-02T12:11:28.498Z,1.86
2017-06-02T12:13:57.226Z,1.40
2017-06-02T12:16:25.999Z,1.84
2017-06-02T12:18:54.794Z,1.88
2017-06-02T12:21:23.566Z,1.56
2017-06-02T12:23:52.894Z,1.80
2017-06-02T12:26:21.682Z,2.10
2017-06-02T12:28:50.442Z,2.66
2017-06-02T12:31:19.206Z,2.34
2017-06-02T12:33:47.977Z,2.72
2017-06-02T12:36:16.782Z,2.42
2017-06-02T12:38:45.522Z,2.00
2017-06-02T12:41:14.330Z,2.40
2017-06-02T12:43:43.095Z,2.40
2017-06-02T12:46:11.882Z,2.58
2017-06-02T12:48:40.654Z,2.20
2017-06-02T12:51:09.509Z,2.38
2017-06-02T12:53:38.233Z,2.20
2017-06-02T12:56:07.033Z,2.44
2017-06-02T12:58:35.837Z,2.30
2017-06-02T13:01:04.614Z,2.20
2017-06-02T13:03:33.397Z,2.02
2017-06-02T13:06:02.233Z,1.96
2017-06-02T13:08:30.988Z,2.40
2017-06-02T13:10:59.777Z,2.22
2017-06-02T13:13:28.542Z,2.34
2017-06-02T13:15:57.301Z,2.42
2017-06-02T13:18:26.093Z,2.18
2017-06-02T13:20:54.881Z,2.00
2017-06-02T13:23:23.657Z,2.04
2017-06-02T13:25:52.445Z,2.26
2017-06-02T13:28:21.225Z,2.04
2017-06-02T13:30:49.985Z,2.62
2017-06-02T13:33:18.777Z,2.30
2017-06-02T13:35:47.537Z,2.28
2017-06-02T13:38:16.301Z,2.42
2017-06-02T13:40:45.081Z,2.38
2017-06-02T13:43:13.845Z,1.76
2017-06-02T13:45:42.624Z,2.70
2017-06-02T13:48:11.397Z,2.14
2017-06-02T13:50:40.158Z,2.38
2017-06-02T13:53:08.941Z,2.48
2017-06-02T13:55:37.709Z,2.82
2017-06-02T13:58:06.469Z,2.40
2017-06-02T14:00:35.234Z,2.06
2017-06-02T14:03:04.001Z,2.48
2017-06-02T14:05:32.778Z,2.28
2017-06-02T14:08:01.577Z,2.20
2017-06-02T14:10:30.345Z,2.48
2017-06-02T14:12:59.112Z,2.62
2017-06-02T14:15:27.877Z,2.60
2017-06-02T14:17:56.668Z,2.78
2017-06-02T14:20:25.432Z,2.28
2017-06-02T14:22:54.384Z,3.00
2017-06-02T14:25:23.156Z,2.48
2017-06-02T14:27:51.920Z,2.46
2017-06-02T14:30:20.685Z,2.52
2017-06-02T14:32:49.496Z,2.42
2017-06-02T14:35:18.236Z,2.46
2017-06-02T14:37:47.001Z,2.22
2017-06-02T14:40:15.781Z,2.68
2017-06-02T14:42:44.649Z,2.44
2017-06-02T14:45:13.420Z,2.64
2017-06-02T14:47:42.180Z,2.42
2017-06-02T14:50:10.944Z,2.10
2017-06-02T14:52:39.704Z,2.52
2017-06-02T14:55:08.492Z,2.26
2017-06-02T14:57:37.268Z,2.64
2017-06-02T15:00:06.037Z,2.46
2017-06-02T15:02:34.812Z,2.32
2017-06-02T15:05:03.576Z,2.34
2017-06-02T15:07:32.340Z,2.82
2017-06-02T15:10:01.132Z,2.70
2017-06-02T15:12:29.898Z,2.70
2017-06-02T15:14:58.660Z,2.98
2017-06-02T15:17:27.456Z,2.56
2017-06-02T15:19:56.229Z,2.58
2017-06-02T15:22:24.992Z,3.22
2017-06-02T15:24:53.768Z,2.72
2017-06-02T15:27:22.552Z,2.74
2017-06-02T15:29:51.408Z,2.78
2017-06-02T15:32:20.168Z,3.16
2017-06-02T15:34:48.937Z,2.86
2017-06-02T15:37:17.700Z,3.48
2017-06-02T15:39:46.476Z,2.92
2017-06-02T15:42:15.276Z,2.86
2017-06-02T15:44:44.064Z,3.20
2017-06-02T15:47:12.872Z,2.76
2017-06-02T15:49:41.616Z,2.64
2017-06-02T15:52:10.384Z,2.30
2017-06-02T15:54:39.719Z,3.00
2017-06-02T15:57:08.495Z,2.72
2017-06-02T15:59:37.264Z,2.50
2017-06-02T16:02:06.159Z,2.48
2017-06-02T16:04:34.879Z,3.18
2017-06-02T16:07:03.643Z,2.72
2017-06-02T16:09:32.427Z,2.70
2017-06-02T16:12:01.187Z,2.84
2017-06-02T16:14:29.951Z,5.96
2017-06-02T16:16:58.743Z,3.68
2017-06-02T16:19:27.507Z,3.00
2017-06-02T16:21:56.279Z,3.12
2017-06-02T16:24:25.143Z,3.80
2017-06-02T16:26:53.931Z,3.80
2017-06-02T16:29:22.663Z,3.06
2017-06-02T16:31:51.455Z,2.98
2017-06-02T16:34:20.219Z,3.00
2017-06-02T16:36:48.983Z,2.72
2017-06-02T16:39:17.771Z,4.02
2017-06-02T16:41:46.527Z,2.70
2017-06-02T16:44:15.291Z,2.52
2017-06-02T16:46:44.083Z,3.20
2017-06-02T16:49:12.842Z,2.72
2017-06-02T16:51:41.659Z,2.60
2017-06-02T16:54:10.439Z,2.82
2017-06-02T16:56:39.199Z,2.76
2017-06-02T16:59:07.962Z,2.98
2017-06-02T17:01:36.755Z,5.20
2017-06-02T17:04:05.514Z,6.02
2017-06-02T17:06:34.279Z,4.78
2017-06-02T17:09:03.063Z,11.76
2017-06-02T17:11:31.843Z,23.88
2017-06-02T17:14:00.610Z,11.54
2017-06-02T17:16:29.411Z,5.58
2017-06-02T17:18:58.174Z,3.58
2017-06-02T17:21:26.934Z,3.26
2017-06-02T17:23:55.742Z,3.32
2017-06-02T17:26:24.503Z,2.98
2017-06-02T17:28:53.267Z,2.60
2017-06-02T17:31:22.042Z,2.90
2017-06-02T17:33:50.802Z,2.20
2017-06-02T17:36:19.562Z,2.96
2017-06-02T17:38:48.334Z,2.66
2017-06-02T17:41:17.095Z,2.72
2017-06-02T17:43:45.882Z,3.44
2017-06-02T17:46:14.659Z,3.16
2017-06-02T17:48:43.422Z,2.72
2017-06-02T17:51:12.186Z,2.50
2017-06-02T17:53:40.954Z,2.22
2017-06-02T17:56:09.718Z,3.06
2017-06-02T17:58:38.486Z,2.80
2017-06-02T18:01:07.266Z,3.00
2017-06-02T18:03:36.030Z,3.02
2017-06-02T18:06:04.798Z,3.06
2017-06-02T18:08:33.582Z,2.50
2017-06-02T18:11:02.350Z,2.44
2017-06-02T18:13:31.114Z,2.86
2017-06-02T18:15:59.882Z,2.84
2017-06-02T18:18:28.738Z,2.66
2017-06-02T18:20:57.502Z,2.80
2017-06-02T18:23:26.286Z,3.08
2017-06-02T18:25:55.054Z,2.98
2017-06-02T18:28:23.817Z,2.84
2017-06-02T18:30:52.605Z,2.82
2017-06-02T18:33:21.371Z,2.56
2017-06-02T18:35:50.137Z,3.26
2017-06-02T18:38:18.917Z,3.12
2017-06-02T18:40:47.751Z,2.88
2017-06-02T18:43:16.510Z,2.82
2017-06-02T18:45:45.306Z,2.74
2017-06-02T18:48:14.070Z,2.68
2017-06-02T18:50:42.825Z,2.68
2017-06-02T18:53:11.607Z,3.16
2017-06-02T18:55:40.473Z,2.68
2017-06-02T18:58:09.205Z,3.60
2017-06-02T19:00:37.985Z,3.40
2017-06-02T19:03:06.745Z,3.08
2017-06-02T19:05:35.625Z,3.04
2017-06-02T19:08:04.353Z,3.06
2017-06-02T19:10:33.117Z,2.76
2017-06-02T19:13:01.909Z,3.04
2017-06-02T19:15:30.697Z,2.90
2017-06-02T19:17:59.473Z,2.86
2017-06-02T19:20:28.269Z,2.80
2017-06-02T19:22:57.047Z,3.08
2017-06-02T19:25:25.925Z,3.16
2017-06-02T19:27:54.721Z,3.38
2017-06-02T19:30:23.638Z,3.44
2017-06-02T19:32:52.409Z,3.68
2017-06-02T19:35:21.189Z,3.20
2017-06-02T19:37:51.013Z,3.32
2017-06-02T19:40:31.589Z,3.34
2017-06-02T19:43:12.941Z,3.48
2017-06-02T19:45:48.332Z,3.52
2017-06-02T19:48:17.245Z,3.86
2017-06-02T19:50:46.017Z,3.98
2017-06-02T19:53:14.808Z,3.88
2017-06-02T19:55:47.941Z,3.80
2017-06-02T19:58:21.697Z,3.34
2017-06-02T20:00:54.421Z,3.82
2017-06-02T20:03:29.857Z,3.20
2017-06-02T20:05:58.645Z,3.42
2017-06-02T20:08:28.316Z,3.22
2017-06-02T20:10:57.080Z,3.62
2017-06-02T20:13:30.078Z,3.84
2017-06-02T20:15:58.861Z,3.28
2017-06-02T20:18:27.628Z,3.48
2017-06-02T20:20:56.405Z,3.50
2017-06-02T20:23:25.169Z,3.52
2017-06-02T20:25:53.936Z,3.40
2017-06-02T20:28:22.716Z,3.66
2017-06-02T20:30:51.489Z,3.90
2017-06-02T20:33:20.264Z,5.66
2017-06-02T20:35:49.048Z,5.94
2017-06-02T20:38:17.804Z,4.12
2017-06-02T20:40:46.580Z,3.74
2017-06-02T20:43:15.368Z,3.72
2017-06-02T20:45:44.133Z,3.92
2017-06-02T20:48:12.896Z,3.62
2017-06-02T20:50:44.980Z,3.48
2017-06-02T20:53:13.744Z,4.18
2017-06-02T20:55:42.512Z,4.92
2017-06-02T20:58:11.308Z,4.84
2017-06-02T21:00:40.104Z,4.10
2017-06-02T21:03:08.869Z,4.90
2017-06-02T21:05:37.660Z,4.74
2017-06-02T21:08:06.428Z,5.04
2017-06-02T21:10:35.208Z,4.30
2017-06-02T21:13:03.996Z,4.72
2017-06-02T21:15:32.764Z,5.06
2017-06-02T21:18:01.544Z,4.00
2017-06-02T21:20:30.324Z,5.80
2017-06-02T21:22:59.976Z,5.38
2017-06-02T21:25:28.745Z,4.66
2017-06-02T21:27:57.552Z,5.30
2017-06-02T21:30:26.320Z,6.36
2017-06-02T21:32:55.115Z,6.12
2017-06-02T21:35:23.895Z,6.16
2017-06-02T21:37:52.663Z,6.54
2017-06-02T21:40:22.347Z,6.74
2017-06-02T21:42:51.143Z,8.04
2017-06-02T21:45:19.928Z,7.26
2017-06-02T21:47:48.704Z,6.40
2017-06-02T21:50:16.743Z,6.30
2017-06-02T21:52:45.520Z,6.14
2017-06-02T21:55:14.304Z,6.78
2017-06-02T21:57:43.103Z,5.98
2017-06-02T22:00:11.861Z,5.96
2017-06-02T22:02:40.628Z,6.28
2017-06-02T22:05:09.399Z,6.38
2017-06-02T22:07:43.240Z,5.70
2017-06-02T22:10:12.069Z,6.24
2017-06-02T22:12:40.120Z,5.28
2017-06-02T22:15:09.837Z,5.26
2017-06-02T22:17:38.684Z,6.22
2017-06-02T22:20:06.892Z,5.70
2017-06-02T22:22:45.276Z,6.68
2017-06-02T22:25:14.130Z,5.64
2017-06-02T22:27:42.949Z,6.44
2017-06-02T22:30:11.805Z,6.38
2017-06-02T22:32:40.630Z,6.38
2017-06-02T22:35:09.457Z,5.88
2017-06-02T22:37:38.309Z,6.12
2017-06-02T22:40:08.084Z,6.24
2017-06-02T22:42:36.896Z,6.12
2017-06-02T22:45:05.757Z,5.68
2017-06-02T22:47:34.576Z,5.42
2017-06-02T22:50:03.396Z,5.84
2017-06-02T22:52:32.225Z,5.16
2017-06-02T22:55:01.040Z,4.80
2017-06-02T22:57:30.052Z,5.56
2017-06-02T22:59:58.880Z,4.92
2017-06-02T23:02:27.700Z,5.58
2017-06-02T23:04:56.516Z,6.42
2017-06-02T23:07:25.348Z,6.48
2017-06-02T23:09:54.160Z,6.24
2017-06-02T23:12:22.999Z,5.74
2017-06-02T23:14:51.804Z,7.48
2017-06-02T23:17:20.628Z,6.12
2017-06-02T23:19:49.455Z,6.10
2017-06-02T23:22:18.304Z,5.46
2017-06-02T23:24:47.127Z,6.26
2017-06-02T23:27:16.060Z,6.12
2017-06-02T23:29:44.867Z,6.90
2017-06-02T23:32:13.692Z,7.88
2017-06-02T23:34:42.516Z,7.60
2017-06-02T23:37:11.372Z,7.46
2017-06-02T23:39:40.188Z,8.50
2017-06-02T23:42:09.015Z,7.72
2017-06-02T23:44:37.864Z,7.82
2017-06-02T23:47:06.683Z,7.38
2017-06-02T23:49:35.503Z,7.88
2017-06-02T23:52:04.336Z,8.48
2017-06-02T23:54:33.155Z,7.64
2017-06-02T23:57:01.973Z,7.78
2017-06-02T23:59:30.851Z,6.50
